Latest Weather Observations for Wilsons Promontory

IDV60801

Issued at 3:31 pm EDT Wednesday 1 April 2015 (issued every 30 minutes, with the page automatically refreshed every 10 minutes)

About weather observations | Map of weather stations | Latest weather observations for VIC | Other Formats
Station Details ID: 085096 Name: WILSONS PROMONTORY LIGHTHOUSE Lat: -39.13 Lon: 146.42 Height: 95.0 m
Data from the previous 72 hours. | See also: Recent months at Wilsons Promontory
Date/Time
EDT
Temp
°C
App
Temp
°C
Dew
Point
Rel
Hum
%
Delta-T
°C
Wind Press
QNH
hPa
Press
MSL
hPa
Rain
since 9 am
mm
Dir
 
Spd
km/h
Gust
km/h
Spd
kts
Gust
kts
01/03:30pm 26.7 24.6 12.4 41 8.3 NNW 15 33 8 18 1013.0 - 0.0
01/03:00pm 26.0 24.9 13.2 45 7.5 NNE 11 33 6 18 1013.4 1013.3 0.0
01/02:30pm 26.4 25.2 12.8 43 7.9 NE 11 32 6 17 1013.9 - 0.0
01/02:00pm 26.4 25.8 13.5 45 7.6 NNW 9 15 5 8 1014.5 - 0.0
01/01:30pm 25.1 22.9 13.3 48 6.9 N 17 32 9 17 1015.0 - 0.0
01/01:00pm 25.9 24.3 12.7 44 7.7 N 13 24 7 13 1015.4 - 0.0
01/12:30pm 26.8 24.1 11.7 39 8.7 N 17 30 9 16 1015.8 - 0.0
01/12:00pm 26.1 22.9 11.4 39 8.4 N 19 35 10 19 1016.3 1016.2 0.0
01/11:30am 25.5 22.1 11.3 41 8.1 N 20 43 11 23 1016.8 - 0.0
01/11:00am 24.4 20.8 12.0 46 7.1 N 22 39 12 21 1017.3 - 0.0
01/10:30am 24.0 19.4 11.0 44 7.3 N 26 41 14 22 1017.5 - 0.0
01/10:00am 21.5 18.4 13.4 60 4.7 N 22 30 12 16 1018.0 - 0.0
01/09:30am 23.9 19.4 9.9 41 7.7 N 24 35 13 19 1018.1 - 0.0
01/09:00am 23.4 19.6 11.1 46 6.9 N 22 39 12 21 1018.3 1018.2 0.0
01/08:30am 23.1 20.3 11.2 47 6.7 N 17 28 9 15 1018.2 - 0.0
01/08:00am 23.6 18.5 10.6 44 7.2 NNW 28 35 15 19 1018.1 - 0.0
01/07:30am 22.9 18.8 11.3 48 6.5 NNW 24 37 13 20 1018.2 - 0.0
01/07:00am 21.9 20.0 15.7 68 3.7 NNW 20 28 11 15 1018.3 - 0.0
01/06:52am 21.7 20.9 18.1 80 2.2 NNW 19 30 10 16 1018.4 - 0.0
01/06:30am 16.7 17.8 16.5 99 0.1 NNW 6 13 3 7 1018.4 - 0.0
01/06:00am 16.6 16.7 16.6 100 0.0 NE 11 20 6 11 1018.5 1018.4 0.0
01/05:30am 16.3 15.6 16.3 100 0.0 N 15 17 8 9 1018.6 - 0.0
01/05:00am 16.4 13.6 16.4 100 0.0 NNE 26 32 14 17 1018.6 - 0.0
01/04:30am 16.5 14.1 16.5 100 0.0 NNE 24 30 13 16 1018.8 - 0.0
01/04:00am 16.6 13.8 16.3 98 0.2 NNE 26 32 14 17 1019.2 - 0.0
01/03:30am 16.9 14.1 16.3 96 0.4 NNE 26 30 14 16 1019.5 - 0.0
01/03:00am 17.0 13.8 16.2 95 0.5 NNE 28 33 15 18 1019.8 1019.7 0.0
01/02:30am 17.0 13.7 16.0 94 0.6 NNE 28 33 15 18 1020.4 - 0.0
01/02:00am 17.0 14.1 16.0 94 0.6 NNE 26 33 14 18 1020.8 - 0.0
01/01:30am 17.1 13.9 16.3 95 0.5 NNE 28 35 15 19 1021.1 - 0.0
01/01:00am 16.8 13.1 16.0 95 0.5 NNE 30 35 16 19 1021.4 - 0.0
01/12:30am 16.8 12.6 15.8 94 0.6 NNE 32 39 17 21 1021.7 - 0.0
01/12:00am 16.8 13.8 15.8 94 0.6 NNE 26 35 14 19 1022.0 1021.9 0.0
 
Date/Time
EDT
Temp
°C
App
Temp
°C
Dew
Point
Rel
Hum
%
Delta-T
°C
Wind Press
QNH
hPa
Press
MSL
hPa
Rain
since 9 am
mm
Dir
 
Spd
km/h
Gust
km/h
Spd
kts
Gust
kts
31/11:30pm 16.6 13.5 15.6 94 0.6 NNE 26 37 14 20 1022.4 - 0.0
31/11:00pm 16.6 13.5 15.5 93 0.6 NNE 26 41 14 22 1022.4 - 0.0
31/10:30pm 16.4 12.4 15.3 93 0.6 NNE 30 46 16 25 1022.6 - 0.0
31/10:00pm 16.4 12.1 15.3 93 0.6 N 32 43 17 23 1022.7 - 0.0
31/09:30pm 16.3 11.9 15.2 93 0.6 N 32 41 17 22 1022.8 - 0.0
31/09:00pm 16.3 12.2 15.0 92 0.8 N 30 41 16 22 1022.8 1022.6 0.0
31/08:30pm 16.4 13.5 15.1 92 0.8 NNE 24 33 13 18 1023.0 - 0.0
31/08:00pm 16.4 13.9 15.1 92 0.8 NNE 22 30 12 16 1023.1 - 0.0
31/07:30pm 16.5 13.6 15.0 91 0.9 NNE 24 33 13 18 1022.9 - 0.0
31/07:00pm 16.6 14.0 15.0 90 0.9 NNE 22 30 12 16 1022.9 - 0.0
31/06:30pm 16.8 14.6 14.8 88 1.2 NE 20 26 11 14 1022.9 - 0.0
31/06:00pm 17.0 14.7 14.6 86 1.4 NE 20 22 11 12 1023.1 1022.9 0.0
31/05:30pm 17.4 15.2 14.9 85 1.5 NE 20 24 11 13 1023.1 - 0.0
31/05:00pm 17.4 15.0 14.3 82 1.8 NE 20 24 11 13 1023.2 - 0.0
31/04:30pm 17.7 15.4 14.2 80 2.0 NE 19 20 10 11 1023.4 - 0.0
31/04:00pm 18.3 16.7 14.0 76 2.5 ENE 15 17 8 9 1023.6 - 0.0
31/03:30pm 18.2 16.2 12.6 70 3.1 ENE 15 19 8 10 1023.9 - 0.0
31/03:00pm 18.6 16.5 13.7 73 2.8 ENE 17 20 9 11 1023.9 1023.7 0.0
31/02:30pm 18.5 16.4 14.8 79 2.2 NE 19 20 10 11 1024.0 - 0.0
31/02:00pm 18.8 16.6 14.5 76 2.5 NE 19 22 10 12 1024.3 - 0.0
31/01:30pm 18.5 16.0 13.6 73 2.8 NE 19 20 10 11 1024.7 - 0.0
31/01:00pm 18.6 15.9 13.5 72 2.9 NE 20 24 11 13 1024.9 - 0.0
31/12:30pm 18.8 16.9 14.3 75 2.6 NE 17 20 9 11 1025.4 - 0.0
31/12:00pm 19.0 17.2 14.5 75 2.6 NE 17 20 9 11 1025.7 1025.6 0.0
31/11:30am 18.8 18.2 14.5 76 2.5 NE 11 15 6 8 1026.4 - 0.0
31/11:00am 19.4 18.4 14.6 74 2.8 NNE 13 15 7 8 1026.7 - 0.0
31/10:30am 19.2 18.4 14.0 72 3.0 NE 11 15 6 8 1026.8 - 0.0
31/10:00am 19.0 18.3 14.3 74 2.7 NNE 11 15 6 8 1026.6 - 0.0
31/09:30am 18.3 18.2 14.0 76 2.5 NNE 7 13 4 7 1026.6 - 0.0
31/09:00am 18.4 18.7 14.5 78 2.3 NNW 6 9 3 5 1026.6 1026.5 0.0
31/08:30am 16.3 15.5 13.0 81 1.8 WNW 9 11 5 6 1026.4 - 0.0
31/08:00am 15.4 14.9 12.7 84 1.5 W 7 9 4 5 1026.1 - 0.0
31/07:30am 15.2 16.0 12.5 84 1.5 CALM 0 7 0 4 1025.8 - 0.0
31/07:00am 15.3 15.4 12.8 85 1.4 E 4 7 2 4 1025.5 - 0.0
31/06:30am 15.0 14.5 12.5 85 1.4 N 7 9 4 5 1025.3 - 0.0
31/06:00am 15.0 14.3 12.1 83 1.6 NW 7 13 4 7 1025.1 1025.0 0.0
31/05:30am 15.1 15.0 12.2 83 1.6 SSE 4 9 2 5 1025.1 - 0.0
31/05:00am 15.6 16.0 12.5 82 1.7 WNW 2 7 1 4 1024.9 - 0.0
31/04:30am 15.4 16.2 12.5 83 1.6 CALM 0 11 0 6 1024.8 - 0.0
31/04:00am 15.5 14.7 12.8 84 1.5 WSW 9 13 5 7 1025.0 - 0.0
31/03:30am 15.4 14.7 13.2 87 1.2 NNW 9 15 5 8 1025.1 - 0.0
31/03:00am 14.9 14.7 13.1 89 1.0 NNE 6 9 3 5 1025.5 1025.4 0.0
31/02:30am 14.9 14.2 13.1 89 1.0 N 9 11 5 6 1025.6 - 0.0
31/02:00am 15.1 14.4 13.3 89 1.0 NNW 9 13 5 7 1025.7 - 0.0
31/01:30am 15.2 16.0 13.7 91 0.8 N 2 9 1 5 1025.7 - 0.0
31/01:00am 14.9 16.0 13.6 92 0.7 CALM 0 0 0 0 1025.8 - 0.0
31/12:30am 14.7 14.1 13.6 93 0.6 N 9 13 5 7 1025.7 - 0.0
31/12:00am 15.0 14.5 13.9 93 0.6 NW 9 11 5 6 1025.9 1025.8 0.0
 
Date/Time
EDT
Temp
°C
App
Temp
°C
Dew
Point
Rel
Hum
%
Delta-T
°C
Wind Press
QNH
hPa
Press
MSL
hPa
Rain
since 9 am
mm
Dir
 
Spd
km/h
Gust
km/h
Spd
kts
Gust
kts
30/11:30pm 15.2 14.0 14.1 93 0.6 WNW 13 15 7 8 1025.9 - 0.0
30/11:00pm 15.3 13.4 14.2 93 0.6 W 17 22 9 12 1026.0 - 0.0
30/10:30pm 15.5 12.7 14.4 93 0.6 W 22 30 12 16 1025.8 - 0.0
30/10:00pm 15.4 12.1 13.9 91 0.8 W 24 28 13 15 1025.8 - 0.0
30/09:30pm 15.5 12.9 13.9 90 0.9 W 20 26 11 14 1025.8 - 0.0
30/09:00pm 15.5 13.1 13.7 89 1.0 W 19 22 10 12 1025.7 1025.6 0.0
30/08:30pm 15.7 13.1 13.7 88 1.1 WNW 20 28 11 15 1025.5 - 0.0
30/08:00pm 15.9 13.4 13.6 86 1.3 W 19 28 10 15 1025.1 - 0.0
30/07:30pm 15.9 13.3 13.9 88 1.1 WNW 20 26 11 14 1024.7 - 0.0
30/07:00pm 16.3 14.0 14.0 86 1.3 W 19 28 10 15 1024.4 - 0.0
30/06:30pm 16.8 14.3 14.1 84 1.5 W 20 32 11 17 1024.1 - 0.0
30/06:00pm 16.6 13.7 13.9 84 1.5 W 22 32 12 17 1023.8 1023.6 0.0
30/05:30pm 17.1 13.0 13.8 81 1.9 W 28 35 15 19 1023.5 - 0.0
30/05:00pm 17.4 13.7 13.9 80 2.0 W 26 35 14 19 1023.3 - 0.0
30/04:30pm 17.3 13.5 13.6 79 2.1 W 26 35 14 19 1023.3 - 0.0
30/04:00pm 17.9 12.5 13.8 77 2.3 W 35 43 19 23 1023.1 - 0.0
30/03:30pm 18.9 15.0 13.3 70 3.2 W 26 35 14 19 1023.2 - 0.0
30/03:00pm 18.9 15.5 13.7 72 3.0 W 24 32 13 17 1023.3 1023.1 0.0
30/02:30pm 18.8 15.6 13.2 70 3.2 W 22 33 12 18 1023.5 - 0.0
30/02:00pm 18.5 14.4 13.8 74 2.7 W 28 39 15 21 1023.6 - 0.0
30/01:30pm 18.8 14.9 13.4 71 3.1 W 26 39 14 21 1023.7 - 0.0
30/01:00pm 18.2 13.9 13.1 72 2.9 W 28 46 15 25 1023.8 - 0.0
30/12:54pm 18.0 13.5 12.7 71 3.0 W 28 46 15 25 1023.8 - 0.0
30/12:30pm 18.0 13.2 12.9 72 2.9 W 30 39 16 21 1023.9 - 0.0
30/12:00pm 17.9 13.3 13.4 75 2.5 WNW 30 41 16 22 1024.1 1023.9 0.0
30/11:30am 17.5 13.1 12.8 74 2.6 W 28 39 15 21 1024.0 - 0.0
30/11:00am 17.7 15.5 13.2 75 2.5 W 17 32 9 17 1024.1 - 0.0
30/10:30am 17.4 13.4 13.1 76 2.4 W 26 37 14 20 1024.0 - 0.0
30/10:00am 17.0 13.4 12.9 77 2.3 WNW 24 37 13 20 1023.7 - 0.0
30/09:30am 16.6 13.3 12.9 79 2.1 WNW 22 35 12 19 1023.5 - 0.0
30/09:00am 16.0 11.5 12.6 80 1.9 WNW 28 35 15 19 1023.2 1023.0 0.0
30/08:30am 15.5 10.8 11.9 79 2.0 WNW 28 41 15 22 1022.8 - 0.0
30/08:00am 15.2 10.8 11.8 80 1.8 NW 26 41 14 22 1022.8 - 0.0
30/07:30am 14.8 10.1 11.9 83 1.6 NW 28 37 15 20 1022.4 - 0.0
30/07:00am 14.8 10.9 12.1 84 1.5 NW 24 39 13 21 1022.3 - 0.0
30/06:30am 14.8 11.4 12.5 86 1.3 NW 22 39 12 21 1022.1 - 0.0
30/06:00am 14.8 11.4 12.5 86 1.3 NW 22 35 12 19 1022.0 1021.8 0.0
30/05:30am 14.8 11.1 12.7 87 1.2 NW 24 32 13 17 1021.9 - 0.0
30/05:00am 14.7 11.3 12.6 87 1.2 NW 22 30 12 16 1021.8 - 0.0
30/04:30am 14.6 10.8 12.5 87 1.2 NW 24 32 13 17 1021.8 - 0.0
30/04:00am 14.8 9.9 12.7 87 1.2 NW 30 35 16 19 1021.7 - 0.0
30/03:30am 14.6 10.9 12.8 89 1.0 NW 24 32 13 17 1022.1 - 0.0
30/03:00am 14.9 10.9 12.9 88 1.1 NW 26 32 14 17 1022.3 1022.1 0.0
30/02:30am 14.9 11.3 12.9 88 1.1 NW 24 33 13 18 1022.3 - 0.0
30/02:00am 15.2 12.3 12.9 86 1.3 WNW 20 28 11 15 1022.3 - 0.0
30/01:30am 15.3 12.6 13.0 86 1.3 NW 19 26 10 14 1022.5 - 0.0
30/01:00am 15.1 12.2 13.0 87 1.2 NW 20 26 11 14 1022.5 - 0.0
30/12:30am 15.2 12.4 13.2 88 1.1 NW 20 30 11 16 1022.6 - 0.0
30/12:00am 15.2 13.4 13.2 88 1.1 NW 15 22 8 12 1022.8 1022.6 0.0
 
Date/Time
EDT
Temp
°C
App
Temp
°C
Dew
Point
Rel
Hum
%
Delta-T
°C
Wind Press
QNH
hPa
Press
MSL
hPa
Rain
since 9 am
mm
Dir
 
Spd
km/h
Gust
km/h
Spd
kts
Gust
kts
29/11:30pm 15.0 13.1 13.0 88 1.1 NW 15 20 8 11 1023.1 - 0.0
29/11:00pm 15.2 13.3 12.9 86 1.3 WNW 15 30 8 16 1023.1 - 0.0
29/10:30pm 15.3 12.3 12.6 84 1.5 W 20 33 11 18 1022.8 - 0.0
29/10:00pm 15.3 12.4 12.4 83 1.6 W 19 30 10 16 1022.6 - 0.0
29/09:30pm 15.4 12.4 12.7 84 1.5 W 20 32 11 17 1022.5 - 0.0
29/09:00pm 15.3 12.2 12.2 82 1.7 W 20 28 11 15 1022.2 1022.0 0.0
29/08:30pm 15.4 11.8 12.0 80 1.9 W 22 33 12 18 1021.9 - 0.0
29/08:00pm 15.6 11.3 12.0 79 2.0 W 26 35 14 19 1021.6 - 0.0
29/07:30pm 15.7 11.0 11.9 78 2.1 W 28 39 15 21 1021.0 - 0.0
29/07:00pm 15.8 11.8 11.8 77 2.2 W 24 35 13 19 1020.9 - 0.0
29/06:30pm 16.3 11.6 12.1 76 2.3 W 28 41 15 22 1020.6 - 0.0
29/06:00pm 16.6 12.3 11.9 74 2.6 W 26 39 14 21 1020.7 1020.5 0.0
29/05:30pm 17.1 11.9 11.6 70 3.0 W 30 41 16 22 1020.5 - 0.0
29/05:00pm 17.3 11.4 11.1 67 3.4 W 33 48 18 26 1020.6 - 0.0
29/04:30pm 17.5 11.5 10.1 62 3.9 W 32 43 17 23 1020.5 - 0.0
29/04:00pm 17.5 13.4 11.3 67 3.4 W 24 43 13 23 1020.6 - 0.0

Other Formats:

Comma delimited format used in spreadsheet applications
http://www.bom.gov.au/fwo/IDV60801/IDV60801.94893.axf

JavaScript Object Notation format (JSON) in row-major order
http://www.bom.gov.au/fwo/IDV60801/IDV60801.94893.json